Time;durP1;ratioP1;P1;durP2;ratioP2;P2;SDS_P1;SDS_P2;PMS_P1;PMS_P2;Temp;Humidity;BMP_temperature;BMP_pressure;BME280_temperature;BME280_humidity;BME280_pressure;Samples;Min_cycle;Max_cycle;Signal;HPM_P1;HPM_P2
2022/02/04 00:24:17;;;;;;;6.10;3.20;;;;;;;-3.94;74.93;98849.48;104967;1271;61033;-23
2022/02/04 00:26:53;;;;;;;5.20;3.40;;;;;;;-4.06;75.17;98844.70;104919;1271;61949;-23
2022/02/04 00:29:28;;;;;;;7.60;3.50;;;;;;;-4.17;75.87;98844.77;105108;1271;75547;-23
2022/02/04 00:32:03;;;;;;;8.60;3.90;;;;;;;-4.28;76.14;98842.17;105032;1271;74478;-23
2022/02/04 00:34:42;;;;;;;8.60;4.40;;;;;;;-4.38;77.79;98842.06;104825;1271;74462;-23
2022/02/04 00:40:08;;;;;;;10.50;5.20;;;;;;;-3.12;74.81;98844.08;104883;1271;62777;-23
2022/02/04 00:42:37;;;;;;;12.50;6.30;;;;;;;-2.79;73.69;98847.54;104908;1271;72514;-23
2022/02/04 00:45:25;;;;;;;12.00;6.10;;;;;;;-2.97;73.91;98850.09;104967;1271;75961;-23
2022/02/04 00:51:00;;;;;;;8.00;4.50;;;;;;;-3.63;76.41;98842.23;104900;1271;61140;-23
2022/02/04 01:26:39;;;;;;;7.90;3.50;;;;;;;-3.68;77.60;98822.52;105165;1271;75591;-23
2022/02/04 01:29:09;;;;;;;5.00;3.00;;;;;;;-3.86;79.04;98823.31;105129;1271;73122;-23
2022/02/04 01:31:38;;;;;;;5.50;3.40;;;;;;;-4.01;79.19;98827.27;105099;1271;61112;-23
2022/02/04 01:34:07;;;;;;;5.20;2.30;;;;;;;-4.10;79.90;98836.48;104995;1271;61139;-23
2022/02/04 01:36:35;;;;;;;5.40;3.20;;;;;;;-3.57;79.80;98835.29;104993;1270;75530;-23
2022/02/04 01:39:04;;;;;;;6.00;2.20;;;;;;;-2.61;77.31;98831.35;105082;1271;75885;-24
2022/02/04 01:41:33;;;;;;;7.30;3.70;;;;;;;-2.30;75.46;98831.05;105018;1271;73252;-23
2022/02/04 01:44:19;;;;;;;9.20;3.90;;;;;;;-2.42;75.14;98831.77;105148;1271;61041;-23
2022/02/04 01:46:47;;;;;;;6.40;3.40;;;;;;;-2.70;75.40;98827.38;104800;1271;61088;-24
2022/02/04 01:49:16;;;;;;;4.00;2.90;;;;;;;-2.96;75.89;98831.21;105013;1271;74131;-23
2022/02/04 01:51:45;;;;;;;5.20;3.00;;;;;;;-3.15;76.58;98827.17;105167;1271;76015;-24
2022/02/04 01:54:14;;;;;;;7.20;3.00;;;;;;;-3.31;77.22;98826.27;105135;1271;71058;-23
2022/02/04 01:56:44;;;;;;;5.10;3.00;;;;;;;-3.46;77.26;98826.83;105146;1271;60993;-23
2022/02/04 01:59:13;;;;;;;5.20;3.50;;;;;;;-3.59;77.32;98818.38;105167;1271;61069;-23
2022/02/04 02:01:41;;;;;;;5.60;3.60;;;;;;;-3.73;77.61;98822.98;105160;1271;74140;-23
2022/02/04 02:04:13;;;;;;;5.50;3.40;;;;;;;-3.84;77.99;98826.85;105139;1271;75039;-24
2022/02/04 02:06:50;;;;;;;7.80;3.80;;;;;;;-3.34;78.47;98828.88;104826;1271;73560;-24
2022/02/04 02:09:24;;;;;;;6.90;4.50;;;;;;;-2.37;76.30;98832.98;104767;1271;61903;-23
2022/02/04 02:11:57;;;;;;;8.40;3.70;;;;;;;-2.08;74.80;98834.77;104821;1271;61085;-23
2022/02/04 02:14:28;;;;;;;8.10;3.10;;;;;;;-2.21;74.61;98832.46;105137;1271;75604;-23
2022/02/04 02:34:12;;;;;;;7.50;4.10;;;;;;;-3.92;77.62;98835.67;105114;1271;74407;-23
2022/02/04 02:42:51;;;;;;;9.90;5.10;;;;;;;-2.35;75.67;98849.40;104494;1277;74488;-23
2022/02/04 02:47:50;;;;;;;22.70;10.70;;;;;;;-2.36;74.39;98855.58;104634;1271;74330;-23
2022/02/04 02:50:44;;;;;;;10.80;5.70;;;;;;;-2.62;74.74;98860.27;104998;1271;61261;-23
2022/02/04 03:03:16;;;;;;;6.20;4.00;;;;;;;-3.65;76.88;98869.29;104987;1271;61061;-23
2022/02/04 03:05:45;;;;;;;8.90;3.50;;;;;;;-3.78;77.72;98871.30;104886;1271;61078;-23
2022/02/04 03:08:14;;;;;;;8.90;3.20;;;;;;;-3.31;77.57;98870.73;104910;1271;75602;-23
2022/02/04 03:10:42;;;;;;;6.10;2.90;;;;;;;-2.37;75.75;98876.85;104917;1271;74953;-23
2022/02/04 03:13:13;;;;;;;8.60;3.50;;;;;;;-2.07;74.22;98874.20;104928;1271;74409;-23
2022/02/04 03:15:58;;;;;;;7.30;3.90;;;;;;;-2.27;73.98;98872.96;104950;1271;61121;-23
2022/02/04 03:18:31;;;;;;;5.50;3.30;;;;;;;-2.62;74.28;98867.58;104910;1271;61156;-23
2022/02/04 03:21:07;;;;;;;12.30;4.10;;;;;;;-2.98;74.80;98863.88;105155;1272;74059;-23
2022/02/04 03:23:39;;;;;;;6.10;3.40;;;;;;;-3.30;75.18;98861.53;105142;1271;74721;-23
2022/02/04 03:26:26;;;;;;;6.80;4.50;;;;;;;-3.55;75.77;98861.02;105114;1271;72871;-23
2022/02/04 03:28:54;;;;;;;8.20;4.80;;;;;;;-3.77;75.99;98868.21;105118;1271;61391;-23
2022/02/04 03:31:26;;;;;;;12.40;6.70;;;;;;;-3.94;76.00;98867.12;105142;1271;61111;-23
2022/02/04 03:33:55;;;;;;;17.10;8.40;;;;;;;-4.13;76.01;98865.89;105133;1271;75478;-22
2022/02/04 03:36:24;;;;;;;18.80;10.60;;;;;;;-4.31;76.34;98864.79;104969;1271;73881;-23
2022/02/04 03:38:52;;;;;;;11.30;5.00;;;;;;;-4.45;77.36;98866.13;104870;1271;74793;-25
2022/02/04 03:41:21;;;;;;;20.00;9.30;;;;;;;-3.95;77.70;98865.11;105137;1271;61865;-24
2022/02/04 03:43:50;;;;;;;17.70;8.60;;;;;;;-3.00;76.09;98868.51;105003;1271;61048;-24
2022/02/04 03:46:19;;;;;;;13.00;6.80;;;;;;;-2.67;74.82;98866.88;105039;1271;74284;-25
2022/02/04 03:48:48;;;;;;;11.40;7.30;;;;;;;-2.77;74.35;98869.05;104923;1271;74205;-24
2022/02/04 03:51:16;;;;;;;12.30;5.90;;;;;;;-2.99;74.50;98871.88;104942;1271;73330;-24
2022/02/04 03:53:46;;;;;;;11.20;4.00;;;;;;;-3.21;74.90;98873.36;104895;1271;61121;-24
2022/02/04 03:56:14;;;;;;;9.60;4.50;;;;;;;-3.46;75.32;98877.44;105027;1271;61236;-24
2022/02/04 03:58:43;;;;;;;11.70;5.30;;;;;;;-3.71;75.66;98872.98;104895;1271;75688;-24
2022/02/04 04:01:12;;;;;;;12.00;6.70;;;;;;;-3.91;75.91;98874.17;104904;1271;74428;-23
2022/02/04 04:03:43;;;;;;;11.70;6.40;;;;;;;-4.10;76.53;98875.31;104881;1271;73480;-24
2022/02/04 04:06:16;;;;;;;12.20;7.20;;;;;;;-4.26;76.68;98878.75;104891;1271;61676;-24
2022/02/04 04:08:44;;;;;;;16.80;9.10;;;;;;;-4.39;77.09;98883.95;104978;1271;61183;-24
2022/02/04 04:11:14;;;;;;;11.40;5.60;;;;;;;-4.51;77.91;98882.70;105134;1271;75328;-25
2022/02/04 04:13:43;;;;;;;12.20;6.70;;;;;;;-4.00;77.99;98882.34;105120;1271;75711;-24
2022/02/04 04:16:14;;;;;;;24.60;12.80;;;;;;;-3.02;76.13;98884.88;104967;1271;74419;-25
2022/02/04 04:18:42;;;;;;;16.60;8.10;;;;;;;-2.69;75.03;98885.99;104957;1271;61775;-24
2022/02/04 04:21:10;;;;;;;13.60;8.20;;;;;;;-2.78;74.54;98885.39;104968;1271;61092;-24
2022/02/04 04:23:39;;;;;;;14.60;7.40;;;;;;;-3.02;74.81;98880.63;104931;1269;75440;-24
2022/02/04 04:26:07;;;;;;;9.50;5.10;;;;;;;-3.28;75.15;98885.77;105162;1271;75894;-22
2022/02/04 04:28:36;;;;;;;6.80;4.20;;;;;;;-3.52;75.70;98882.51;105104;1271;73233;-24
2022/02/04 04:31:04;;;;;;;7.90;4.70;;;;;;;-3.79;76.09;98880.50;105137;1271;61028;-24
2022/02/04 04:33:33;;;;;;;10.20;5.30;;;;;;;-4.06;76.46;98879.27;104870;1271;61191;-24
2022/02/04 04:36:01;;;;;;;11.40;5.40;;;;;;;-4.26;77.38;98874.50;105061;1270;75492;-24
2022/02/04 04:38:55;;;;;;;11.30;5.80;;;;;;;-4.44;77.67;98869.66;105039;1271;76004;-24
2022/02/04 05:26:16;;;;;;;9.70;6.00;;;;;;;-3.50;75.79;98881.94;105132;1271;61166;-23
2022/02/04 05:31:19;;;;;;;10.70;4.90;;;;;;;-4.10;76.71;98883.79;105154;1271;74321;-22
2022/02/04 05:33:49;;;;;;;10.50;5.70;;;;;;;-4.30;77.08;98890.88;105124;1271;75879;-22
2022/02/04 05:36:17;;;;;;;10.50;5.50;;;;;;;-4.45;77.66;98889.70;105121;1271;73356;-22
2022/02/04 05:38:48;;;;;;;8.90;5.90;;;;;;;-4.56;78.10;98887.55;105127;1271;62088;-23
2022/02/04 05:41:22;;;;;;;8.40;5.90;;;;;;;-4.66;78.19;98889.98;105131;1271;62014;-24
2022/02/04 05:43:57;;;;;;;5.20;2.90;;;;;;;-4.74;78.57;98887.95;105001;1271;74599;-23
2022/02/04 05:46:33;;;;;;;8.00;4.90;;;;;;;-4.12;77.95;98886.19;104733;1271;75152;-23
2022/02/04 05:49:03;;;;;;;10.40;4.50;;;;;;;-3.19;76.25;98888.58;104909;1270;73481;-23
2022/02/04 05:51:40;;;;;;;10.30;5.60;;;;;;;-2.97;75.18;98887.98;104932;1271;62365;-23
2022/02/04 05:54:17;;;;;;;10.90;5.50;;;;;;;-3.11;75.31;98889.89;104965;1271;61066;-23
2022/02/04 05:59:30;;;;;;;8.60;4.70;;;;;;;-3.59;76.31;98894.08;104910;1271;75850;-24
2022/02/04 06:02:14;;;;;;;9.50;5.30;;;;;;;-3.78;76.49;98894.19;105025;1271;72949;-23
2022/02/04 06:23:32;;;;;;;14.60;7.90;;;;;;;-2.28;74.13;98893.23;104955;1271;75366;-24
2022/02/04 06:26:04;;;;;;;10.60;6.10;;;;;;;-2.36;73.52;98889.23;105090;1271;75191;-23
2022/02/04 06:28:35;;;;;;;13.90;6.80;;;;;;;-2.56;73.75;98891.21;104945;1271;72780;-24
2022/02/04 06:31:03;;;;;;;11.40;5.90;;;;;;;-2.80;74.25;98889.35;104746;1271;61146;-23
2022/02/04 06:33:35;;;;;;;9.90;5.60;;;;;;;-3.03;74.67;98886.27;104898;1271;61127;-25
2022/02/04 06:36:04;;;;;;;14.50;6.10;;;;;;;-3.26;74.94;98886.23;104979;1271;74395;-23
2022/02/04 06:38:34;;;;;;;12.60;6.60;;;;;;;-3.49;75.64;98888.71;104909;1271;76144;-23
2022/02/04 06:41:03;;;;;;;15.70;8.10;;;;;;;-3.71;76.16;98887.41;105007;1271;74588;-24
2022/02/04 06:43:31;;;;;;;6.10;2.50;;;;;;;-3.84;76.61;98888.58;104947;1271;62522;-23
2022/02/04 06:46:00;;;;;;;18.10;7.80;;;;;;;-3.32;76.61;98888.73;105072;1271;61166;-23
2022/02/04 06:48:29;;;;;;;19.60;8.70;;;;;;;-2.56;75.12;98890.17;104959;1271;75552;-23
2022/02/04 06:50:57;;;;;;;14.70;6.70;;;;;;;-2.36;73.79;98895.02;104931;1271;74822;-23
2022/02/04 06:53:26;;;;;;;10.80;6.60;;;;;;;-2.41;73.99;98893.29;105018;1271;73212;-23
2022/02/04 06:55:54;;;;;;;12.40;7.30;;;;;;;-2.73;74.03;98895.94;104979;1271;60987;-23
2022/02/04 06:58:22;;;;;;;10.80;7.30;;;;;;;-3.00;75.21;98888.05;104989;1271;61785;-23
2022/02/04 07:00:51;;;;;;;13.50;8.00;;;;;;;-3.18;76.09;98894.16;105192;1270;74210;-23
2022/02/04 07:03:20;;;;;;;13.70;6.50;;;;;;;-3.24;76.24;98892.45;105110;1271;75980;-23
2022/02/04 07:05:56;;;;;;;14.30;7.70;;;;;;;-3.28;76.03;98895.77;105113;1271;74411;-23
2022/02/04 07:17:08;;;;;;;14.80;7.30;;;;;;;-1.49;71.68;98884.70;104924;1271;76317;-23
2022/02/04 07:19:47;;;;;;;20.00;10.60;;;;;;;-1.56;71.97;98884.95;104879;1271;73427;-23
2022/02/04 07:22:33;;;;;;;13.10;7.80;;;;;;;-1.67;71.97;98884.63;105142;1271;61039;-23
2022/02/04 07:25:04;;;;;;;16.10;8.90;;;;;;;-1.80;72.23;98882.85;105139;1271;61989;-23
2022/02/04 07:27:34;;;;;;;13.80;7.30;;;;;;;-1.88;72.46;98881.06;105088;1271;74860;-23
2022/02/04 07:30:08;;;;;;;18.40;10.10;;;;;;;-1.97;72.53;98884.08;104982;1271;76041;-23
2022/02/04 07:33:00;;;;;;;16.40;8.80;;;;;;;-2.06;72.48;98886.09;104781;1271;73385;-23
2022/02/04 07:41:01;;;;;;;16.30;7.80;;;;;;;-2.10;73.86;98890.45;104981;1271;74695;-23
2022/02/04 07:43:29;;;;;;;16.50;8.50;;;;;;;-1.21;72.27;98888.14;104832;1271;74762;-23
2022/02/04 07:45:58;;;;;;;22.10;10.00;;;;;;;-0.89;70.17;98888.02;104940;1271;74906;-23
2022/02/04 07:48:27;;;;;;;17.70;9.90;;;;;;;-0.93;70.07;98883.91;104933;1271;61035;-23
2022/02/04 07:50:55;;;;;;;16.60;9.00;;;;;;;-1.06;70.15;98880.98;104995;1271;61076;-23
2022/02/04 07:53:30;;;;;;;18.30;10.20;;;;;;;-1.18;70.28;98878.50;104849;1271;75243;-23
2022/02/04 07:55:59;;;;;;;15.80;8.60;;;;;;;-1.26;70.73;98880.16;104794;1271;73209;-23
2022/02/04 07:58:27;;;;;;;13.50;8.40;;;;;;;-1.33;70.74;98872.38;104923;1271;74396;-23
2022/02/04 08:00:56;;;;;;;17.70;10.50;;;;;;;-1.43;70.78;98872.59;104766;1274;61191;-23
2022/02/04 08:06:05;;;;;;;16.80;8.10;;;;;;;-1.52;71.99;98872.05;104887;1271;74586;-23
2022/02/04 08:09:17;;;;;;;12.30;6.70;;;;;;;-0.73;70.59;98873.45;104976;1271;75761;-24
2022/02/04 08:14:14;;;;;;;20.40;10.60;;;;;;;-0.35;68.67;98872.17;104872;1271;61244;-23
2022/02/04 08:20:04;;;;;;;19.70;10.30;;;;;;;-1.22;69.56;98863.34;104874;1271;75591;-23
2022/02/04 08:33:18;;;;;;;15.30;7.80;;;;;;;-1.57;71.08;98861.65;104760;1271;74368;-23
2022/02/04 08:54:32;;;;;;;12.90;4.80;;;;;;;-1.25;69.43;98865.29;104825;1271;62475;-24
2022/02/04 09:02:32;;;;;;;12.60;7.10;;;;;;;-1.50;70.47;98857.48;104863;1272;75955;-23
2022/02/04 09:05:04;;;;;;;16.30;7.40;;;;;;;-1.44;70.56;98860.20;105131;1271;72800;-22
2022/02/04 09:07:47;;;;;;;9.40;5.20;;;;;;;-1.30;70.59;98863.09;104958;1271;61090;-23
2022/02/04 09:10:20;;;;;;;9.60;4.80;;;;;;;-0.42;70.06;98863.89;104904;1271;61895;-22
2022/02/04 09:23:24;;;;;;;10.10;4.60;;;;;;;0.15;65.67;98858.73;105176;1271;60997;-25
2022/02/04 09:25:53;;;;;;;8.80;5.60;;;;;;;-0.19;66.51;98859.95;105140;1271;72769;-25
2022/02/04 09:28:21;;;;;;;6.40;4.00;;;;;;;-0.36;66.80;98863.70;105161;1271;76070;-26
2022/02/04 09:30:50;;;;;;;4.90;3.70;;;;;;;-0.55;67.54;98849.42;104988;1271;74186;-24
2022/02/04 09:33:18;;;;;;;6.80;3.90;;;;;;;-0.62;67.85;98850.71;104964;1271;61065;-24
2022/02/04 09:35:46;;;;;;;11.30;4.80;;;;;;;-0.69;68.00;98859.15;104955;1271;61044;-24
2022/02/04 09:38:15;;;;;;;9.60;5.30;;;;;;;-0.77;68.28;98860.47;104814;1271;75501;-27
2022/02/04 09:40:47;;;;;;;10.70;5.40;;;;;;;-0.74;68.34;98862.41;104982;1271;74047;-25
2022/02/04 09:43:15;;;;;;;9.80;4.80;;;;;;;-0.73;68.46;98864.61;105115;1271;74396;-25
2022/02/04 09:45:43;;;;;;;10.00;5.40;;;;;;;-0.73;68.59;98859.14;105081;1271;61140;-28
2022/02/04 09:48:13;;;;;;;9.70;4.30;;;;;;;-0.52;68.74;98860.04;105161;1271;61075;-25
2022/02/04 09:50:47;;;;;;;13.50;7.40;;;;;;;0.24;66.90;98858.38;105155;1271;74837;-24
2022/02/04 10:04:53;;;;;;;6.40;3.80;;;;;;;-0.30;66.93;98852.69;105075;1271;74511;-25
2022/02/04 10:07:30;;;;;;;6.20;3.30;;;;;;;-0.43;67.25;98851.52;105019;1271;74800;-26
2022/02/04 10:13:35;;;;;;;4.70;2.60;;;;;;;-0.70;67.53;98846.92;104894;1271;61206;-23
2022/02/04 10:16:23;;;;;;;6.80;4.20;;;;;;;-0.83;68.13;98844.69;104483;1277;61018;-24
2022/02/04 10:22:02;;;;;;;2.50;1.50;;;;;;;-0.98;68.30;98838.61;104479;1277;74476;-25
2022/02/04 10:24:32;;;;;;;8.60;3.80;;;;;;;-0.41;68.24;98835.23;104413;1281;71779;-24
2022/02/04 10:27:18;;;;;;;5.00;3.00;;;;;;;0.30;65.12;98832.34;104232;1278;61134;-24
2022/02/04 10:29:57;;;;;;;5.60;2.90;;;;;;;0.25;64.32;98828.44;104559;1278;61236;-24
2022/02/04 10:32:47;;;;;;;4.10;2.40;;;;;;;0.17;64.67;98823.65;104457;1277;74096;-25
2022/02/04 10:35:32;;;;;;;8.40;3.10;;;;;;;-0.02;65.07;98827.19;104555;1277;76228;-24
2022/02/04 10:38:19;;;;;;;3.80;2.70;;;;;;;-0.14;65.58;98827.31;104505;1277;73439;-23
2022/02/04 10:41:02;;;;;;;6.40;3.90;;;;;;;-0.34;65.92;98831.36;104584;1277;61143;-25
2022/02/04 10:46:32;;;;;;;5.70;2.90;;;;;;;-0.55;66.48;98818.54;104631;1277;75712;-23
2022/02/04 10:49:24;;;;;;;5.20;3.30;;;;;;;-0.77;67.17;98812.73;104592;1277;75765;-23
2022/02/04 11:03:05;;;;;;;4.20;2.10;;;;;;;-0.85;67.98;98800.95;104568;1277;75994;-23
2022/02/04 11:05:52;;;;;;;3.70;2.30;;;;;;;-0.28;66.39;98797.34;105064;1274;74412;-23
2022/02/04 11:53:55;;;;;;;5.70;3.40;;;;;;;0.45;64.38;98755.66;105126;1271;61089;-23
2022/02/04 11:56:23;;;;;;;7.80;4.10;;;;;;;0.40;64.97;98751.97;104988;1271;74574;-23
2022/02/04 11:59:02;;;;;;;3.50;2.40;;;;;;;0.21;65.04;98751.61;104894;1271;76010;-23
2022/02/04 12:01:41;;;;;;;6.20;3.80;;;;;;;0.05;65.71;98739.50;104673;1271;74435;-23
2022/02/04 12:04:20;;;;;;;7.50;4.10;;;;;;;-0.15;65.62;98735.73;104941;1271;61150;-23
2022/02/04 12:06:48;;;;;;;8.40;4.80;;;;;;;-0.31;66.35;98730.08;104862;1271;62349;-23
2022/02/04 12:09:32;;;;;;;9.30;4.80;;;;;;;-0.32;66.69;98725.51;105074;1274;74563;-23
2022/02/04 12:12:00;;;;;;;;;;;;;;;-0.31;66.96;98724.12;104721;1271;74511;-23
2022/02/04 12:14:30;;;;;;;7.20;4.10;;;;;;;-0.36;66.76;98721.94;104724;1274;74479;-24
2022/02/04 12:17:09;;;;;;;3.90;2.30;;;;;;;-0.54;66.99;98724.20;104697;1271;61141;-23
2022/02/04 12:19:40;;;;;;;6.00;3.20;;;;;;;-0.64;67.52;98723.73;104766;1271;61134;-23
2022/02/04 12:22:09;;;;;;;6.80;3.40;;;;;;;-0.71;67.33;98722.17;104651;1271;74226;-23
2022/02/04 12:24:40;;;;;;;5.20;3.20;;;;;;;-0.77;68.11;98717.80;105149;1271;75197;-22
2022/02/04 12:27:30;;;;;;;4.10;2.00;;;;;;;-0.88;68.28;98717.73;104994;1271;74339;-23
2022/02/04 12:30:32;;;;;;;6.00;3.80;;;;;;;-0.82;67.96;98717.64;105074;1271;61945;-23
2022/02/04 12:33:02;;;;;;;3.80;2.20;;;;;;;-0.12;66.78;98716.46;105161;1271;61776;-23
2022/02/04 12:35:30;;;;;;;7.70;4.50;;;;;;;0.36;64.75;98713.91;105093;1271;75457;-23
2022/02/04 12:37:59;;;;;;;8.20;4.50;;;;;;;0.53;64.26;98710.91;105154;1271;76311;-23
2022/02/04 12:40:27;;;;;;;4.00;3.00;;;;;;;0.32;63.99;98708.77;105156;1271;74551;-23
2022/02/04 12:42:56;;;;;;;9.00;4.80;;;;;;;-0.04;64.78;98709.84;104981;1270;61125;-23
2022/02/04 12:45:27;;;;;;;8.00;4.60;;;;;;;-0.10;65.52;98715.74;105018;1271;60939;-23
2022/02/04 12:48:07;;;;;;;4.60;3.00;;;;;;;-0.27;65.69;98723.61;105139;1271;75653;-23
2022/02/04 12:50:37;;;;;;;6.00;3.10;;;;;;;-0.28;66.26;98724.83;105094;1271;74839;-23
2022/02/04 12:53:07;;;;;;;7.10;3.30;;;;;;;-0.33;66.57;98722.33;105128;1271;74471;-23
2022/02/04 12:55:50;;;;;;;4.60;3.00;;;;;;;-0.42;66.80;98722.70;105097;1271;61092;-23
2022/02/04 12:58:41;;;;;;;8.40;5.10;;;;;;;-0.57;67.13;98717.48;105146;1271;62096;-23
2022/02/04 13:09:51;;;;;;;8.60;4.00;;;;;;;-0.81;68.03;98713.16;104929;1271;61101;-23
2022/02/04 13:12:20;;;;;;;6.70;4.30;;;;;;;-0.29;67.83;98707.65;104806;1271;61025;-25
2022/02/04 13:14:48;;;;;;;6.60;3.50;;;;;;;0.48;65.86;98714.90;104911;1271;74610;-24
2022/02/04 13:17:40;;;;;;;8.60;5.50;;;;;;;0.59;64.73;98713.89;104807;1271;76274;-23
2022/02/04 13:20:09;;;;;;;7.40;2.90;;;;;;;0.63;65.29;98715.09;105132;1271;73234;-23
2022/02/04 13:22:39;;;;;;;11.70;5.50;;;;;;;0.45;64.88;98713.31;105072;1274;61064;-23
2022/02/04 13:25:14;;;;;;;8.30;5.20;;;;;;;0.31;65.44;98714.27;105155;1271;61084;-22
2022/02/04 13:28:04;;;;;;;8.40;5.30;;;;;;;0.12;65.54;98712.71;105108;1271;75778;-23
2022/02/04 13:30:40;;;;;;;6.90;3.30;;;;;;;-0.02;66.43;98706.67;105116;1274;75700;-23
2022/02/04 13:33:17;;;;;;;7.40;4.10;;;;;;;-0.15;66.71;98703.47;105100;1271;72857;-23
2022/02/04 13:36:41;;;;;;;11.50;5.30;;;;;;;-0.32;67.38;98700.09;101695;1309;601159;-24
2022/02/04 13:47:41;;;;;;;8.80;5.10;;;;;;;-0.74;69.00;98692.27;104016;1284;75078;-23
2022/02/04 13:50:32;;;;;;;7.20;3.70;;;;;;;-0.76;69.45;98692.37;103924;1282;661948;-23
2022/02/04 13:53:35;;;;;;;6.10;3.70;;;;;;;0.10;68.96;98696.59;104462;1281;61297;-24
2022/02/04 13:56:33;;;;;;;11.40;4.90;;;;;;;0.88;66.41;98696.31;104484;1281;61112;-23
2022/02/04 13:59:28;;;;;;;6.10;4.40;;;;;;;0.93;65.59;98692.84;104512;1281;73752;-23
2022/02/04 14:02:21;;;;;;;8.60;5.20;;;;;;;0.72;65.79;98690.93;104470;1281;75985;-22
2022/02/04 14:05:00;;;;;;;10.30;6.00;;;;;;;0.45;66.22;98695.23;104463;1281;73387;-23
2022/02/04 14:07:52;;;;;;;7.80;5.30;;;;;;;0.21;66.37;98690.31;104631;1277;61169;-23
2022/02/04 14:10:37;;;;;;;9.20;5.80;;;;;;;0.01;67.15;98687.41;104730;1277;61865;-23
2022/02/04 14:13:10;;;;;;;9.30;5.90;;;;;;;-0.15;67.44;98682.66;104527;1281;74841;-22
2022/02/04 14:15:52;;;;;;;8.30;5.00;;;;;;;-0.29;68.18;98679.02;104629;1281;76021;-22
2022/02/04 14:18:21;;;;;;;10.30;5.70;;;;;;;-0.42;68.63;98678.33;104284;1277;73267;-23
2022/02/04 14:20:50;;;;;;;11.50;6.60;;;;;;;-0.50;69.04;98678.85;104416;1277;61203;-22
2022/02/04 14:23:18;;;;;;;14.60;7.60;;;;;;;-0.58;68.93;98676.29;104370;1278;61698;-22
2022/02/04 14:26:00;;;;;;;17.30;9.70;;;;;;;-0.67;69.30;98678.52;104365;1277;74887;-25
2022/02/04 14:28:41;;;;;;;8.90;4.20;;;;;;;-0.74;69.95;98680.48;104318;1278;75827;-23
2022/02/04 14:53:24;;;;;;;13.30;7.10;;;;;;;-0.86;70.47;98682.54;104781;1274;74536;-24
2022/02/04 15:01:28;;;;;;;9.10;5.00;;;;;;;-1.11;72.28;98671.41;104827;1274;61648;-24
2022/02/04 15:06:34;;;;;;;14.90;8.30;;;;;;;-0.26;69.51;98675.46;105117;1274;73669;-24
2022/02/04 15:09:07;;;;;;;12.50;6.50;;;;;;;-0.34;69.84;98678.70;104785;1274;75154;-23
2022/02/04 15:11:37;;;;;;;10.90;6.30;;;;;;;-0.54;70.39;98682.57;104717;1277;74362;-24
2022/02/04 15:14:09;;;;;;;11.00;7.10;;;;;;;-0.76;71.18;98682.46;104766;1274;61208;-23
2022/02/04 15:16:37;;;;;;;15.60;8.50;;;;;;;-0.98;71.72;98681.13;104746;1274;61062;-23
2022/02/04 15:19:06;;;;;;;12.10;6.90;;;;;;;-1.18;72.54;98682.25;104598;1274;74899;-23
2022/02/04 15:21:34;;;;;;;12.80;6.70;;;;;;;-1.33;73.25;98690.67;104828;1274;73934;-23
2022/02/04 15:24:03;;;;;;;16.40;7.40;;;;;;;-1.45;73.65;98693.49;104798;1274;73057;-24
2022/02/04 15:26:32;;;;;;;9.10;5.40;;;;;;;-1.46;74.45;98690.45;104654;1274;62067;-23
2022/02/04 15:29:04;;;;;;;16.50;7.80;;;;;;;-0.82;73.61;98688.48;105105;1274;62402;-25
2022/02/04 15:34:10;;;;;;;18.40;9.30;;;;;;;-0.50;71.63;98682.76;105120;1273;75830;-24
2022/02/04 15:36:44;;;;;;;15.60;8.50;;;;;;;-0.66;72.12;98679.01;104779;1274;74479;-23
2022/02/04 15:39:19;;;;;;;13.30;7.80;;;;;;;-0.87;72.42;98683.59;104913;1274;61161;-23
2022/02/04 15:41:48;;;;;;;15.30;8.60;;;;;;;-1.08;72.99;98682.56;104785;1274;61151;-23
2022/02/04 15:44:24;;;;;;;16.00;6.10;;;;;;;-1.27;73.54;98677.84;104892;1271;74482;-23
2022/02/04 16:03:01;;;;;;;12.10;7.40;;;;;;;-0.73;71.94;98684.21;104819;1271;72969;-23
2022/02/04 16:05:31;;;;;;;14.80;7.90;;;;;;;-1.01;72.76;98691.11;105173;1271;62532;-23
2022/02/04 16:08:00;;;;;;;18.90;10.20;;;;;;;-1.21;73.32;98687.13;105179;1271;61051;-24
2022/02/04 16:10:48;;;;;;;17.70;10.40;;;;;;;-1.39;74.03;98688.16;104990;1271;74688;-23
2022/02/04 16:13:54;;;;;;;16.40;8.30;;;;;;;-1.53;74.15;98688.86;104917;1271;74921;-23
2022/02/04 16:19:09;;;;;;;15.30;7.10;;;;;;;-0.96;73.98;98689.06;104916;1271;61154;-23
2022/02/04 16:22:01;;;;;;;16.30;9.70;;;;;;;-0.32;71.84;98690.87;105028;1271;61019;-24
2022/02/04 16:29:51;;;;;;;12.00;6.10;;;;;;;-0.80;72.36;98695.57;105066;1271;74192;-23
2022/02/04 16:32:20;;;;;;;18.00;8.60;;;;;;;-1.02;72.79;98696.31;104923;1271;61147;-23
2022/02/04 16:34:56;;;;;;;;;;;;;;;-1.25;73.60;98688.30;104984;1271;61035;-24
2022/02/04 16:37:29;;;;;;;12.30;7.90;;;;;;;-1.47;74.21;98690.33;104872;1271;73685;-23
2022/02/04 16:39:58;;;;;;;;;;;;;;;-1.64;75.34;98689.95;105037;1271;75771;-23
2022/02/04 16:42:28;;;;;;;7.00;3.60;;;;;;;-1.78;75.64;98690.79;104957;1270;74651;-23
2022/02/04 16:44:57;;;;;;;14.20;6.20;;;;;;;-1.86;76.32;98694.14;105058;1271;61156;-23
2022/02/04 16:47:25;;;;;;;15.60;7.80;;;;;;;-1.30;75.72;98690.55;105245;1271;62187;-24
2022/02/04 16:49:54;;;;;;;10.40;5.90;;;;;;;-0.59;73.20;98689.09;105148;1270;73786;-23
2022/02/04 16:52:22;;;;;;;13.80;6.70;;;;;;;-0.43;72.20;98687.41;105205;1271;74691;-23
2022/02/04 16:54:51;;;;;;;13.80;6.20;;;;;;;-0.59;72.28;98685.18;105088;1271;73347;-23
2022/02/04 16:57:24;;;;;;;7.00;4.40;;;;;;;-0.82;72.77;98679.45;104964;1271;61138;-23
2022/02/04 16:59:53;;;;;;;15.50;9.30;;;;;;;-1.07;73.58;98678.77;104953;1271;61131;-24
2022/02/04 17:02:21;;;;;;;13.60;7.80;;;;;;;-1.26;73.91;98678.98;104957;1271;72848;-24
2022/02/04 17:04:50;;;;;;;14.60;7.50;;;;;;;-1.42;74.48;98684.70;104953;1271;75992;-23
2022/02/04 17:07:23;;;;;;;13.00;6.20;;;;;;;-1.60;75.23;98684.05;105069;1271;74449;-23
2022/02/04 17:09:54;;;;;;;6.20;4.50;;;;;;;-1.70;75.71;98686.41;104973;1271;63723;-23
2022/02/04 17:12:28;;;;;;;15.70;7.40;;;;;;;-1.15;75.08;98682.80;105014;1271;61014;-24
2022/02/04 17:14:57;;;;;;;13.00;5.40;;;;;;;-0.53;72.91;98678.31;104958;1271;74964;-23
2022/02/04 17:17:25;;;;;;;7.40;4.20;;;;;;;-0.47;72.24;98675.47;104871;1271;76002;-23
2022/02/04 17:20:05;;;;;;;10.60;6.60;;;;;;;-0.71;72.63;98667.45;104956;1271;72897;-23
2022/02/04 17:22:36;;;;;;;9.40;5.10;;;;;;;-0.96;73.38;98661.11;104962;1270;61143;-23
2022/02/04 17:25:12;;;;;;;9.00;4.80;;;;;;;-1.20;74.02;98660.52;104852;1271;61042;-23
2022/02/04 17:27:43;;;;;;;14.20;6.40;;;;;;;-1.42;74.71;98659.51;105182;1271;73163;-23
2022/02/04 17:30:14;;;;;;;11.50;5.20;;;;;;;-1.60;75.45;98660.19;105126;1271;74137;-23
2022/02/04 17:32:43;;;;;;;8.10;4.70;;;;;;;-1.60;75.87;98655.40;105065;1271;73353;-23
2022/02/04 17:35:13;;;;;;;13.30;6.70;;;;;;;-0.94;74.41;98652.02;105078;1271;61064;-23
2022/02/04 17:37:44;;;;;;;11.00;6.00;;;;;;;-0.55;72.96;98648.02;105098;1271;61098;-23
2022/02/04 17:40:14;;;;;;;13.70;7.50;;;;;;;-0.59;72.31;98644.77;104838;1271;74666;-23
2022/02/04 17:42:43;;;;;;;13.40;6.80;;;;;;;-0.79;72.89;98646.27;104796;1271;76046;-23
2022/02/04 17:45:16;;;;;;;9.70;5.40;;;;;;;-1.05;73.57;98643.59;104987;1271;74459;-25
2022/02/04 17:50:54;;;;;;;10.00;6.50;;;;;;;-1.51;74.85;98642.83;104881;1271;61132;-25
2022/02/04 17:53:27;;;;;;;13.60;5.70;;;;;;;-1.53;75.67;98643.59;104849;1271;74471;-25
2022/02/04 17:56:02;;;;;;;12.40;6.10;;;;;;;-0.89;74.30;98644.30;104969;1271;74961;-24
2022/02/04 17:58:49;;;;;;;17.70;8.50;;;;;;;-0.58;72.59;98639.28;104822;1271;72945;-23
2022/02/04 18:06:42;;;;;;;11.80;7.30;;;;;;;-1.15;73.82;98637.48;105162;1271;73982;-23
2022/02/04 18:09:05;;;;;;;16.70;8.10;;;;;;;-1.37;74.32;98639.23;105213;1271;76185;-23
2022/02/04 18:11:34;;;;;;;14.70;7.50;;;;;;;-1.56;75.13;98643.36;105146;1271;74358;-22
2022/02/04 18:14:05;;;;;;;12.90;7.40;;;;;;;-1.72;75.60;98651.08;104918;1271;61022;-24
2022/02/04 18:16:37;;;;;;;10.10;5.20;;;;;;;-1.40;75.52;98648.02;104963;1271;61029;-24
2022/02/04 18:19:05;;;;;;;24.80;10.00;;;;;;;-0.74;73.75;98644.05;104881;1271;73096;-25
2022/02/04 18:21:37;;;;;;;11.20;5.50;;;;;;;-0.56;72.70;98641.41;105161;1271;73207;-22
2022/02/04 18:24:07;;;;;;;10.80;5.90;;;;;;;-0.71;72.50;98643.56;105179;1271;72749;-22
2022/02/04 18:26:35;;;;;;;16.30;8.10;;;;;;;-0.93;73.23;98639.70;105195;1271;61034;-22